Time;durP1;ratioP1;P1;durP2;ratioP2;P2;SDS_P1;SDS_P2;PMS_P1;PMS_P2;Temp;Humidity;BMP_temperature;BMP_pressure;BME280_temperature;BME280_humidity;BME280_pressure;Samples;Min_cycle;Max_cycle;Signal;HPM_P1;HPM_P2
2021/12/30 00:02:16;;;;;;;41.88;10.27;;;;;;;9.77;100.00;101055.59;5010605;28;20049;-62
2021/12/30 00:04:41;;;;;;;47.80;11.02;;;;;;;9.78;100.00;101067.69;5010259;28;20017;-62
2021/12/30 00:07:09;;;;;;;40.47;10.00;;;;;;;9.76;100.00;101070.22;5010121;28;20037;-62
2021/12/30 00:09:36;;;;;;;41.17;11.27;;;;;;;9.76;100.00;101065.03;5010254;28;20029;-63
2021/12/30 00:12:02;;;;;;;47.15;11.52;;;;;;;9.75;100.00;101071.03;5008845;28;20181;-62
2021/12/30 00:14:27;;;;;;;36.47;10.93;;;;;;;9.75;100.00;101065.84;5010062;28;20448;-63
2021/12/30 00:16:53;;;;;;;40.95;11.15;;;;;;;9.75;100.00;101070.16;5010456;28;20022;-62
2021/12/30 00:19:18;;;;;;;41.85;12.02;;;;;;;9.81;100.00;101068.69;5010352;28;20409;-62
2021/12/30 00:21:43;;;;;;;42.72;11.80;;;;;;;9.82;100.00;101070.44;5010208;28;20049;-62
2021/12/30 00:24:10;;;;;;;33.10;11.90;;;;;;;9.82;100.00;101070.44;5009436;28;20071;-62
2021/12/30 00:26:35;;;;;;;42.28;12.48;;;;;;;9.84;100.00;101073.97;5010005;28;20110;-62
2021/12/30 00:29:00;;;;;;;36.92;12.93;;;;;;;9.88;100.00;101074.97;5010189;28;20034;-62
2021/12/30 00:31:26;;;;;;;44.45;11.73;;;;;;;9.91;100.00;101084.59;5010010;28;20049;-63
2021/12/30 00:33:51;;;;;;;40.03;11.82;;;;;;;9.90;100.00;101077.63;5010257;28;20025;-62
2021/12/30 00:36:17;;;;;;;42.15;12.35;;;;;;;9.91;100.00;101076.81;5009553;28;20040;-63
2021/12/30 00:38:44;;;;;;;33.65;11.52;;;;;;;9.92;100.00;101081.16;5010497;28;20061;-62
2021/12/30 00:41:10;;;;;;;42.42;11.85;;;;;;;9.94;100.00;101082.09;5009673;28;20037;-62
2021/12/30 00:43:36;;;;;;;37.45;11.80;;;;;;;9.95;100.00;101094.22;5009857;28;20037;-63
2021/12/30 00:46:03;;;;;;;42.13;11.90;;;;;;;9.95;100.00;101091.63;5010130;28;20033;-63
2021/12/30 00:48:29;;;;;;;40.78;11.15;;;;;;;9.97;100.00;101089.97;5009527;28;20029;-63
2021/12/30 00:50:55;;;;;;;40.88;11.20;;;;;;;10.01;100.00;101096.16;5010121;28;20033;-63
2021/12/30 00:53:20;;;;;;;35.05;11.27;;;;;;;10.01;100.00;101098.75;5009099;28;20042;-63
2021/12/30 00:55:46;;;;;;;40.13;10.93;;;;;;;10.03;100.00;101100.59;5009616;28;20029;-62
2021/12/30 00:58:12;;;;;;;39.08;9.68;;;;;;;10.05;100.00;101100.63;5009680;28;20101;-62
2021/12/30 01:00:39;;;;;;;38.95;10.18;;;;;;;10.04;100.00;101102.34;5009211;28;20034;-62
2021/12/30 01:03:05;;;;;;;38.90;10.65;;;;;;;10.06;100.00;101103.28;5009530;28;20470;-62
2021/12/30 01:05:30;;;;;;;39.97;12.52;;;;;;;10.09;100.00;101100.81;5009679;28;20079;-63
2021/12/30 01:07:56;;;;;;;36.08;10.23;;;;;;;10.09;100.00;101105.97;5009587;28;20025;-62
2021/12/30 01:10:23;;;;;;;37.92;10.43;;;;;;;10.11;100.00;101098.28;5009320;28;20107;-62
2021/12/30 01:12:49;;;;;;;46.47;11.40;;;;;;;10.14;100.00;101102.69;5009171;28;20045;-63
2021/12/30 01:15:18;;;;;;;33.53;8.82;;;;;;;10.19;100.00;101101.16;5009722;28;20018;-63
2021/12/30 01:20:11;;;;;;;41.83;10.18;;;;;;;10.22;100.00;101101.28;5009319;28;20029;-62
2021/12/30 01:22:36;;;;;;;37.88;8.88;;;;;;;10.23;100.00;101113.41;5009031;28;20501;-63
2021/12/30 01:25:06;;;;;;;35.03;9.70;;;;;;;10.24;100.00;101122.03;5009164;28;20022;-63
2021/12/30 01:27:32;;;;;;;38.90;9.10;;;;;;;10.23;100.00;101113.41;5009515;28;20030;-63
2021/12/30 01:29:57;;;;;;;35.58;10.23;;;;;;;10.27;100.00;101104.91;5009355;28;20040;-63
2021/12/30 01:32:23;;;;;;;38.35;11.52;;;;;;;10.35;100.00;101106.91;5009442;28;20252;-63
2021/12/30 01:34:48;;;;;;;38.58;8.80;;;;;;;10.38;100.00;101105.31;5008470;28;20037;-63
2021/12/30 01:37:18;;;;;;;37.47;9.85;;;;;;;10.39;100.00;101106.19;5009476;28;20030;-63
2021/12/30 01:39:44;;;;;;;41.78;9.90;;;;;;;10.43;100.00;101115.88;5009564;28;20037;-62
2021/12/30 01:42:10;;;;;;;38.45;10.57;;;;;;;10.48;100.00;101109.19;5009292;28;20466;-63
2021/12/30 01:44:36;;;;;;;47.30;9.88;;;;;;;10.51;100.00;101111.88;5009046;28;20528;-62
2021/12/30 01:47:04;;;;;;;34.33;10.65;;;;;;;10.52;100.00;101111.03;5009337;28;20021;-63
2021/12/30 01:49:30;;;;;;;33.90;9.40;;;;;;;10.59;100.00;101100.91;5009339;28;20037;-62
2021/12/30 01:51:56;;;;;;;37.67;10.10;;;;;;;10.62;100.00;101101.00;5009158;28;20030;-63
2021/12/30 01:54:23;;;;;;;39.55;11.05;;;;;;;10.61;100.00;101107.03;5009136;28;20022;-63
2021/12/30 01:56:50;;;;;;;34.13;11.63;;;;;;;10.65;100.00;101108.91;5009364;28;20315;-62
2021/12/30 01:59:18;;;;;;;32.42;10.38;;;;;;;10.67;100.00;101102.06;5002095;28;20026;-61
2021/12/30 02:01:45;;;;;;;30.02;11.02;;;;;;;10.69;100.00;101103.88;5009020;28;20040;-63
2021/12/30 02:04:11;;;;;;;33.28;11.70;;;;;;;10.71;100.00;101101.34;5008754;28;20114;-62
2021/12/30 02:06:37;;;;;;;33.17;11.32;;;;;;;10.74;100.00;101098.84;5010706;28;20034;-63
2021/12/30 02:09:02;;;;;;;34.53;11.13;;;;;;;10.78;100.00;101092.97;5012558;28;20080;-62
2021/12/30 02:11:28;;;;;;;31.00;11.07;;;;;;;10.79;100.00;101093.84;5012374;28;20136;-63
2021/12/30 02:13:54;;;;;;;33.63;11.45;;;;;;;10.80;100.00;101093.00;5012146;28;20117;-62
2021/12/30 02:16:21;;;;;;;33.30;11.13;;;;;;;10.79;100.00;101094.72;5012570;28;20037;-63
2021/12/30 02:18:47;;;;;;;34.88;11.45;;;;;;;10.85;100.00;101098.38;5012715;28;20026;-62
2021/12/30 02:21:12;;;;;;;28.83;10.75;;;;;;;10.84;100.00;101107.84;5012041;28;20541;-62
2021/12/30 02:23:39;;;;;;;34.20;10.73;;;;;;;10.86;100.00;101105.31;5012267;28;20033;-63
2021/12/30 02:26:13;;;;;;;30.70;11.50;;;;;;;10.86;100.00;101106.19;5012440;28;20038;-63
2021/12/30 02:28:39;;;;;;;32.15;10.43;;;;;;;10.86;100.00;101108.78;5012336;28;20360;-62
2021/12/30 02:31:10;;;;;;;36.08;10.45;;;;;;;10.86;100.00;101107.91;5012299;28;20014;-63
2021/12/30 02:33:36;;;;;;;32.22;10.98;;;;;;;10.87;100.00;101118.31;5009059;28;20148;-63
2021/12/30 02:36:02;;;;;;;34.47;11.05;;;;;;;10.89;100.00;101110.59;5012359;28;20037;-61
2021/12/30 02:38:28;;;;;;;28.85;11.07;;;;;;;10.89;100.00;101110.59;5012021;28;20482;-63
2021/12/30 02:40:57;;;;;;;29.75;10.23;;;;;;;10.88;100.00;101114.03;5011827;28;20032;-63
2021/12/30 02:43:26;;;;;;;33.00;10.45;;;;;;;10.86;100.00;101111.38;5012087;28;20441;-63
2021/12/30 02:45:53;;;;;;;36.97;10.73;;;;;;;10.88;100.00;101108.84;5012087;28;20041;-63
2021/12/30 02:48:22;;;;;;;30.10;10.45;;;;;;;10.89;100.00;101110.59;5011716;28;20057;-63
2021/12/30 02:50:49;;;;;;;28.17;11.15;;;;;;;10.89;100.00;101113.19;5011861;28;20030;-63
2021/12/30 02:53:15;;;;;;;28.88;10.32;;;;;;;10.92;100.00;101105.50;5011462;28;20022;-63
2021/12/30 02:55:43;;;;;;;28.88;11.88;;;;;;;10.93;100.00;101105.59;5011604;28;20414;-63
2021/12/30 02:58:08;;;;;;;31.63;10.82;;;;;;;10.92;100.00;101103.81;5011820;28;20032;-62
2021/12/30 03:00:35;;;;;;;29.60;10.98;;;;;;;10.93;100.00;101117.66;5011617;28;20021;-63
2021/12/30 03:03:00;;;;;;;28.23;11.68;;;;;;;10.95;100.00;101115.13;5011345;28;20029;-63
2021/12/30 03:05:25;;;;;;;29.83;11.50;;;;;;;10.94;100.00;101122.00;5011663;28;20026;-63
2021/12/30 03:07:52;;;;;;;32.10;12.55;;;;;;;10.93;100.00;101122.84;5011457;28;20025;-63
2021/12/30 03:10:22;;;;;;;25.60;11.07;;;;;;;10.93;100.00;101122.84;5011374;28;20084;-63
2021/12/30 03:12:55;;;;;;;22.95;11.45;;;;;;;10.95;100.00;101123.78;5010978;28;20053;-63
2021/12/30 03:15:21;;;;;;;26.45;12.73;;;;;;;10.95;100.00;101122.91;5007162;28;20030;-62
2021/12/30 03:17:47;;;;;;;23.63;11.40;;;;;;;10.96;100.00;101124.66;5008294;28;20042;-63
2021/12/30 03:20:12;;;;;;;22.02;11.65;;;;;;;10.96;100.00;101122.06;5011388;28;20458;-63
2021/12/30 03:22:39;;;;;;;24.88;11.57;;;;;;;10.95;100.00;101126.38;5011348;28;20030;-63
2021/12/30 03:25:08;;;;;;;18.60;9.95;;;;;;;10.95;100.00;101126.38;5010880;28;20057;-63
2021/12/30 03:27:34;;;;;;;17.02;10.65;;;;;;;10.96;100.00;101120.34;5010961;28;20109;-63
2021/12/30 03:30:00;;;;;;;19.60;11.35;;;;;;;10.96;100.00;101125.53;5010819;28;20245;-62
2021/12/30 03:32:26;;;;;;;21.17;11.77;;;;;;;10.95;100.00;101126.38;5011313;28;20025;-63
2021/12/30 03:34:51;;;;;;;15.65;10.48;;;;;;;10.99;100.00;101117.84;5011164;28;20037;-62
2021/12/30 03:37:16;;;;;;;17.80;11.00;;;;;;;11.01;100.00;101124.00;5011126;28;20030;-62
2021/12/30 03:39:42;;;;;;;20.15;11.05;;;;;;;11.01;100.00;101121.38;5042714;28;20218;-63
2021/12/30 03:42:07;;;;;;;16.35;10.45;;;;;;;11.04;100.00;101115.44;5010586;28;20076;-63
2021/12/30 03:44:33;;;;;;;15.38;9.80;;;;;;;11.05;100.00;101118.09;5010802;28;20038;-63
2021/12/30 03:46:59;;;;;;;13.93;9.68;;;;;;;11.06;100.00;101124.16;5005444;28;20014;-63
2021/12/30 03:49:25;;;;;;;17.40;10.35;;;;;;;11.07;100.00;101115.53;5009430;28;20029;-63
2021/12/30 03:51:52;;;;;;;15.70;9.60;;;;;;;11.09;100.00;101119.06;5010744;28;20421;-63
2021/12/30 03:54:18;;;;;;;17.23;9.07;;;;;;;11.09;100.00;101123.38;5010228;28;20553;-63
2021/12/30 03:56:44;;;;;;;12.02;8.82;;;;;;;11.11;100.00;101126.91;5010726;28;20113;-63
2021/12/30 03:59:09;;;;;;;14.50;8.95;;;;;;;11.13;100.00;101123.53;5010509;28;20022;-63
2021/12/30 04:01:35;;;;;;;16.10;8.93;;;;;;;11.12;100.00;101124.34;5010303;28;20034;-63
2021/12/30 04:04:00;;;;;;;14.65;8.85;;;;;;;11.13;100.00;101125.25;5010148;28;20033;-63
2021/12/30 04:06:27;;;;;;;12.57;7.82;;;;;;;11.14;100.00;101127.00;5010708;28;20037;-63
2021/12/30 04:08:53;;;;;;;16.63;9.50;;;;;;;11.16;100.00;101122.75;5010149;28;20017;-63
2021/12/30 04:11:19;;;;;;;13.88;9.02;;;;;;;11.20;100.00;101129.81;5010244;28;20417;-63
2021/12/30 04:13:44;;;;;;;14.13;9.63;;;;;;;11.22;100.00;101115.19;5010343;28;20042;-63
2021/12/30 04:16:10;;;;;;;17.33;9.70;;;;;;;11.21;100.00;101128.09;5010225;28;20034;-63
2021/12/30 04:18:35;;;;;;;19.05;10.50;;;;;;;11.24;100.00;101129.06;5009796;28;20028;-63
2021/12/30 04:21:01;;;;;;;20.50;12.00;;;;;;;11.27;100.00;101142.16;5010176;28;20561;-64
2021/12/30 04:23:26;;;;;;;22.85;12.80;;;;;;;11.27;100.00;101139.56;5009964;28;20032;-63
2021/12/30 04:25:51;;;;;;;24.52;13.68;;;;;;;11.28;100.00;101146.50;5010131;28;20564;-64
2021/12/30 04:28:17;;;;;;;24.42;14.63;;;;;;;11.27;100.00;101144.75;5009562;28;20085;-63
2021/12/30 04:30:42;;;;;;;28.67;16.98;;;;;;;11.34;100.00;101144.97;5009769;28;20022;-62
2021/12/30 04:33:08;;;;;;;29.50;17.52;;;;;;;11.38;100.00;101144.25;5009936;28;20040;-63
2021/12/30 04:35:34;;;;;;;35.67;21.85;;;;;;;11.41;100.00;101152.13;5010012;28;20030;-64
2021/12/30 04:37:59;;;;;;;33.78;20.67;;;;;;;11.40;100.00;101151.22;5009715;28;20025;-62
2021/12/30 04:40:27;;;;;;;35.80;22.55;;;;;;;11.42;100.00;101151.31;5009705;28;20057;-63
2021/12/30 04:42:53;;;;;;;37.90;23.45;;;;;;;11.44;100.00;101146.16;5003474;28;20050;-62
2021/12/30 04:45:19;;;;;;;37.13;24.23;;;;;;;11.46;100.00;101140.19;5009662;28;20061;-63
2021/12/30 04:47:44;;;;;;;39.38;25.52;;;;;;;11.48;100.00;101143.72;5009966;28;20050;-64
2021/12/30 04:50:12;;;;;;;40.50;27.55;;;;;;;11.52;100.00;101150.78;5009800;28;20025;-63
2021/12/30 04:52:38;;;;;;;40.47;27.30;;;;;;;11.52;100.00;101150.78;5009803;28;20101;-63
2021/12/30 04:55:05;;;;;;;41.92;28.70;;;;;;;11.53;100.00;101151.66;5009525;28;20109;-63
2021/12/30 04:57:31;;;;;;;43.83;28.52;;;;;;;11.52;100.00;101161.16;5009389;28;20056;-63
2021/12/30 04:59:56;;;;;;;42.80;31.08;;;;;;;11.55;100.00;101151.72;5009553;28;20030;-63
2021/12/30 05:02:25;;;;;;;41.42;30.98;;;;;;;11.55;100.00;101151.72;5009821;28;20033;-63
2021/12/30 05:04:50;;;;;;;40.47;29.52;;;;;;;11.56;100.00;101145.69;5009130;28;20437;-64
2021/12/30 05:07:16;;;;;;;41.92;29.42;;;;;;;11.57;100.00;101150.03;5009653;28;20033;-63
2021/12/30 05:09:41;;;;;;;41.63;29.25;;;;;;;11.57;100.00;101150.03;5009481;28;20026;-63
2021/12/30 05:12:07;;;;;;;42.47;30.58;;;;;;;11.57;100.00;101155.22;5009253;28;20085;-64
2021/12/30 05:14:32;;;;;;;41.22;31.58;;;;;;;11.59;100.00;101150.97;5009471;28;20531;-63
2021/12/30 05:17:02;;;;;;;36.50;28.13;;;;;;;11.60;100.00;101168.31;5009287;28;20601;-63
2021/12/30 05:19:28;;;;;;;39.22;29.95;;;;;;;11.60;100.00;101163.13;5009346;28;20054;-63
2021/12/30 05:21:53;;;;;;;37.40;29.23;;;;;;;11.60;100.00;101168.31;5009426;28;20109;-63
2021/12/30 05:24:18;;;;;;;34.47;26.90;;;;;;;11.60;100.00;101178.69;5009031;28;20123;-64
2021/12/30 05:26:44;;;;;;;35.28;27.48;;;;;;;11.63;100.00;101181.38;5009334;28;20115;-63
2021/12/30 05:29:09;;;;;;;28.95;24.80;;;;;;;11.65;100.00;101174.53;5009346;28;20022;-63
2021/12/30 05:31:35;;;;;;;27.25;23.10;;;;;;;11.65;100.00;101178.03;5009314;28;20753;-63
2021/12/30 05:34:00;;;;;;;29.27;23.63;;;;;;;11.66;100.00;101189.28;5009067;28;20033;-64
2021/12/30 05:36:27;;;;;;;23.20;20.73;;;;;;;11.65;100.00;101188.41;5009414;28;20096;-64
2021/12/30 05:38:53;;;;;;;23.65;20.55;;;;;;;11.68;100.00;101192.81;5009421;28;20077;-63
2021/12/30 05:41:18;;;;;;;21.48;19.27;;;;;;;11.70;100.00;101193.75;5011890;28;20029;-63
2021/12/30 05:43:44;;;;;;;20.55;18.55;;;;;;;11.72;100.00;101194.69;5013341;28;20424;-63
2021/12/30 05:46:09;;;;;;;20.88;18.80;;;;;;;11.76;100.00;101206.91;5012843;28;20022;-63
2021/12/30 05:48:35;;;;;;;21.48;19.58;;;;;;;11.76;100.00;101206.91;5013208;28;20018;-63
2021/12/30 05:51:01;;;;;;;18.70;17.00;;;;;;;11.77;100.00;101197.41;5013256;28;20025;-63
2021/12/30 05:53:28;;;;;;;18.80;17.20;;;;;;;11.76;100.00;101217.28;5006054;28;20025;-63
2021/12/30 05:55:54;;;;;;;18.05;16.45;;;;;;;11.76;100.00;101222.47;5013019;28;20021;-63
2021/12/30 05:58:19;;;;;;;18.05;16.48;;;;;;;11.76;100.00;101219.88;5007366;28;20022;-63
2021/12/30 06:00:44;;;;;;;17.35;15.77;;;;;;;11.77;100.00;101220.78;5006915;28;20030;-64
2021/12/30 06:03:10;;;;;;;16.95;15.55;;;;;;;11.76;100.00;101219.88;5010939;28;20022;-63
2021/12/30 06:05:35;;;;;;;17.50;16.00;;;;;;;11.77;100.00;101207.78;5012685;28;20072;-63
2021/12/30 06:08:00;;;;;;;19.05;17.33;;;;;;;11.79;100.00;101215.63;5012627;28;20113;-64
2021/12/30 06:10:26;;;;;;;19.23;17.52;;;;;;;11.81;100.00;101203.59;5012727;28;20022;-64
2021/12/30 06:12:51;;;;;;;19.63;17.92;;;;;;;11.81;100.00;101196.69;5010875;28;20077;-63
2021/12/30 06:15:16;;;;;;;19.25;17.65;;;;;;;11.81;100.00;101193.19;5012450;28;20036;-63
2021/12/30 06:17:42;;;;;;;21.08;19.20;;;;;;;11.83;100.00;101201.94;5009620;28;20514;-63
2021/12/30 06:20:10;;;;;;;22.23;20.38;;;;;;;11.83;100.00;101214.91;5009136;28;20105;-64
2021/12/30 06:22:36;;;;;;;22.48;20.40;;;;;;;11.84;100.00;101216.66;5012488;28;20022;-63
2021/12/30 06:25:03;;;;;;;22.38;20.40;;;;;;;11.85;100.00;101226.25;5012598;28;20290;-63
2021/12/30 06:27:29;;;;;;;22.48;20.52;;;;;;;11.84;100.00;101220.16;5012181;28;20512;-63
2021/12/30 06:33:31;;;;;;;19.52;17.92;;;;;;;11.88;100.00;101221.13;5012061;28;20048;-63
2021/12/30 06:35:56;;;;;;;16.65;15.25;;;;;;;11.87;100.00;101225.44;5012241;28;20030;-64
2021/12/30 06:38:22;;;;;;;16.20;14.80;;;;;;;11.87;100.00;101220.25;5011740;28;20030;-64
2021/12/30 06:40:47;;;;;;;14.20;12.90;;;;;;;11.91;100.00;101218.63;5012184;28;20026;-64
2021/12/30 06:43:12;;;;;;;13.25;12.25;;;;;;;11.93;100.00;101223.88;5005783;28;20446;-63
2021/12/30 06:45:38;;;;;;;13.52;12.38;;;;;;;11.93;100.00;101229.97;5012019;28;20166;-64
2021/12/30 06:48:05;;;;;;;12.55;11.65;;;;;;;11.92;100.00;101223.00;5012232;28;20026;-64
2021/12/30 06:50:32;;;;;;;13.05;11.85;;;;;;;11.94;100.00;101231.75;5005959;28;20026;-64
2021/12/30 06:52:58;;;;;;;12.40;11.25;;;;;;;11.95;100.00;101238.69;5010194;28;20053;-64
2021/12/30 06:55:23;;;;;;;12.77;11.63;;;;;;;11.95;100.00;101233.50;5011912;28;20072;-63
2021/12/30 06:57:49;;;;;;;12.07;11.00;;;;;;;11.96;100.00;101235.25;4997708;28;20300;-63
2021/12/30 07:00:15;;;;;;;11.43;10.38;;;;;;;11.96;100.00;101240.44;5011284;28;20383;-64
2021/12/30 07:02:42;;;;;;;10.25;9.45;;;;;;;11.96;100.00;101244.78;5011387;28;20046;-63
2021/12/30 07:05:08;;;;;;;10.23;9.32;;;;;;;11.95;100.00;101262.06;5011752;28;20032;-64
2021/12/30 07:07:34;;;;;;;9.68;8.80;;;;;;;11.96;100.00;101266.41;5011529;28;20101;-64
2021/12/30 07:09:59;;;;;;;9.20;8.30;;;;;;;11.94;100.00;101265.50;5011133;28;20116;-63
2021/12/30 07:12:25;;;;;;;9.70;8.73;;;;;;;11.95;100.00;101263.75;5011472;28;20041;-64
2021/12/30 07:14:50;;;;;;;8.20;7.57;;;;;;;11.96;100.00;101262.94;5010512;28;20037;-64
2021/12/30 07:17:15;;;;;;;9.77;8.88;;;;;;;11.94;100.00;101252.50;5011211;28;20402;-64
2021/12/30 07:19:41;;;;;;;9.15;8.25;;;;;;;11.95;100.00;101264.66;5000986;28;20473;-64
2021/12/30 07:22:06;;;;;;;10.70;9.70;;;;;;;11.96;100.00;101275.94;5000501;28;20437;-64
2021/12/30 07:24:31;;;;;;;12.00;10.70;;;;;;;11.96;100.00;101276.78;5009713;28;20426;-63
2021/12/30 07:26:57;;;;;;;12.95;11.75;;;;;;;11.98;100.00;101279.47;5011388;28;20034;-64
2021/12/30 07:29:22;;;;;;;12.95;11.65;;;;;;;11.97;100.00;101283.78;5011150;28;20045;-64
2021/12/30 07:31:48;;;;;;;13.23;12.02;;;;;;;11.98;100.00;101282.06;5009740;28;20060;-63
2021/12/30 07:34:13;;;;;;;14.93;13.52;;;;;;;11.99;100.00;101286.41;5011004;28;20029;-63
2021/12/30 07:36:39;;;;;;;13.63;12.43;;;;;;;12.01;100.00;101288.25;5011024;28;20034;-64
2021/12/30 07:39:05;;;;;;;14.15;12.85;;;;;;;12.03;100.00;101282.22;5010717;28;20389;-63
2021/12/30 07:41:31;;;;;;;14.30;13.02;;;;;;;12.03;100.00;101285.69;5010103;28;20030;-64
2021/12/30 07:43:56;;;;;;;11.57;10.50;;;;;;;12.04;100.00;101294.34;5007811;28;20048;-63
2021/12/30 07:46:22;;;;;;;11.82;10.63;;;;;;;12.06;100.00;101290.09;5009270;28;20030;-64
2021/12/30 07:48:47;;;;;;;11.63;10.52;;;;;;;12.10;100.00;101295.50;5010504;28;20128;-63
2021/12/30 07:51:13;;;;;;;11.40;10.23;;;;;;;12.11;100.00;101291.16;5009400;28;20550;-63
2021/12/30 07:53:40;;;;;;;11.13;10.07;;;;;;;12.10;100.00;101297.19;5008403;28;20033;-63
2021/12/30 07:56:06;;;;;;;10.70;9.70;;;;;;;12.11;100.00;101301.56;5005836;28;20060;-63
2021/12/30 07:58:32;;;;;;;10.98;10.07;;;;;;;12.10;100.00;101295.50;5007612;28;20033;-63
2021/12/30 08:00:57;;;;;;;11.63;10.43;;;;;;;12.12;100.00;101299.00;5008853;28;20030;-63
2021/12/30 08:03:24;;;;;;;10.23;9.32;;;;;;;12.13;100.00;101289.50;5007754;28;20478;-64
2021/12/30 08:05:49;;;;;;;10.73;9.73;;;;;;;12.12;100.00;101290.34;5007651;28;20124;-64
2021/12/30 08:08:15;;;;;;;9.05;8.25;;;;;;;12.14;100.00;101296.47;5007453;28;20439;-63
2021/12/30 08:10:40;;;;;;;9.65;8.68;;;;;;;12.16;100.00;101299.13;5008399;28;20394;-63
2021/12/30 08:13:06;;;;;;;8.55;7.75;;;;;;;12.14;100.00;101299.09;5010235;28;20072;-63
2021/12/30 08:15:31;;;;;;;8.30;7.50;;;;;;;12.14;100.00;101306.88;5010172;28;20148;-62
2021/12/30 08:17:56;;;;;;;7.90;7.15;;;;;;;12.13;100.00;101310.28;5009879;28;20021;-64
2021/12/30 08:20:22;;;;;;;7.28;6.57;;;;;;;12.12;100.00;101321.53;5010081;28;20124;-63
2021/12/30 08:22:50;;;;;;;7.68;6.95;;;;;;;12.13;100.00;101325.88;5009082;28;20049;-64
2021/12/30 08:25:16;;;;;;;8.88;6.22;;;;;;;12.14;100.00;101338.03;5007315;28;20022;-63
2021/12/30 08:27:42;;;;;;;5.93;5.43;;;;;;;12.13;100.00;101342.34;5019264;28;20474;-63
2021/12/30 08:30:11;;;;;;;5.88;5.30;;;;;;;12.15;100.00;101347.59;5008921;28;20540;-64
2021/12/30 08:32:37;;;;;;;6.63;5.20;;;;;;;12.15;100.00;101328.50;5009614;28;20410;-63
2021/12/30 08:35:03;;;;;;;5.47;4.95;;;;;;;12.18;100.00;101339.88;5009119;28;20025;-64
2021/12/30 08:37:28;;;;;;;4.53;4.00;;;;;;;12.20;100.00;101333.03;5008924;28;20026;-63
2021/12/30 08:39:53;;;;;;;5.18;4.57;;;;;;;12.22;100.00;101335.69;5006248;28;20137;-64
2021/12/30 08:42:25;;;;;;;5.45;3.90;;;;;;;12.25;100.00;101339.25;5008461;28;20084;-64
2021/12/30 08:44:53;;;;;;;4.22;3.92;;;;;;;12.26;100.00;101337.56;5009301;28;20445;-64
2021/12/30 08:47:18;;;;;;;5.35;3.90;;;;;;;12.28;100.00;101338.50;5009046;28;20181;-64
2021/12/30 08:49:46;;;;;;;4.97;4.47;;;;;;;12.29;100.00;101341.97;5008289;28;20427;-64
2021/12/30 08:52:16;;;;;;;4.80;4.40;;;;;;;12.30;100.00;101343.75;5008854;28;20025;-63
2021/12/30 08:54:42;;;;;;;6.45;4.13;;;;;;;12.31;100.00;101358.50;5008170;28;20109;-64
2021/12/30 08:57:08;;;;;;;4.82;4.43;;;;;;;12.32;100.00;101357.69;5008788;28;20021;-64
2021/12/30 08:59:35;;;;;;;5.60;4.20;;;;;;;12.33;100.00;101373.31;5007904;28;20022;-64
2021/12/30 09:02:00;;;;;;;4.32;3.92;;;;;;;12.37;100.00;101382.09;4998948;28;20100;-64
2021/12/30 09:04:26;;;;;;;4.60;3.72;;;;;;;12.36;100.00;101377.72;5007833;28;20021;-63
2021/12/30 09:06:52;;;;;;;4.88;3.75;;;;;;;12.36;100.00;101389.00;5008696;28;20254;-64
2021/12/30 09:09:18;;;;;;;6.22;4.13;;;;;;;12.36;100.00;101390.69;5007729;28;20037;-64
2021/12/30 09:11:43;;;;;;;6.13;4.38;;;;;;;12.43;100.00;101381.41;5008897;28;20516;-64
2021/12/30 09:14:08;;;;;;;5.63;3.80;;;;;;;12.43;100.00;101377.09;5009460;28;20030;-64
2021/12/30 09:16:34;;;;;;;5.93;3.72;;;;;;;12.47;100.00;101376.34;5009074;28;20084;-64
2021/12/30 09:19:00;;;;;;;4.63;3.97;;;;;;;12.51;100.00;101379.94;5008900;28;20405;-64
2021/12/30 09:21:25;;;;;;;4.20;3.70;;;;;;;12.55;100.00;101380.94;5008183;28;20034;-64
2021/12/30 09:23:50;;;;;;;10.52;4.25;;;;;;;12.59;100.00;101383.66;5008673;28;20486;-64
2021/12/30 09:26:16;;;;;;;5.50;3.72;;;;;;;12.67;100.00;101386.53;5009479;28;20073;-64
2021/12/30 09:28:41;;;;;;;7.25;3.35;;;;;;;12.72;100.00;101408.34;5009638;28;20025;-64
2021/12/30 09:31:06;;;;;;;6.40;3.90;;;;;;;12.76;100.00;101398.03;5009101;28;20029;-64
2021/12/30 09:33:33;;;;;;;8.05;3.45;;;;;;;12.79;100.00;101403.38;5009220;28;20032;-63
2021/12/30 09:36:01;;;;;;;5.88;3.25;;;;;;;12.82;100.00;101400.84;5008426;28;20057;-64
2021/12/30 09:38:27;;;;;;;6.07;3.20;;;;;;;12.82;100.00;101396.53;5008776;28;20030;-63
2021/12/30 09:40:52;;;;;;;6.40;3.03;;;;;;;12.84;100.00;101409.59;5009198;28;20029;-63
2021/12/30 09:43:18;;;;;;;6.32;3.17;;;;;;;12.90;100.00;101401.97;5009046;28;20028;-64
2021/12/30 09:49:23;;;;;;;7.53;3.17;;;;;;;12.94;100.00;101410.75;5008850;28;20545;-64
2021/12/30 09:51:48;;;;;;;7.60;2.95;;;;;;;12.94;100.00;101410.75;5008507;28;20037;-64
2021/12/30 09:54:14;;;;;;;7.70;2.90;;;;;;;12.95;100.00;101416.00;5009071;28;20165;-64
2021/12/30 09:56:39;;;;;;;8.48;3.20;;;;;;;12.94;100.00;101416.84;5009317;28;20025;-64
2021/12/30 09:59:06;;;;;;;9.70;3.95;;;;;;;12.96;100.00;101424.69;5009378;28;20501;-64
2021/12/30 10:01:34;;;;;;;9.35;3.45;;;;;;;12.94;100.00;101416.84;5008705;28;20025;-64
2021/12/30 10:04:01;;;;;;;10.65;3.50;;;;;;;12.95;100.00;101423.81;5008803;28;20022;-64
2021/12/30 10:06:29;;;;;;;10.10;3.10;;;;;;;12.95;100.00;101417.72;5008591;28;20045;-64
2021/12/30 10:09:00;;;;;;;7.85;3.25;;;;;;;12.99;100.00;101413.50;5009416;28;20148;-64
2021/12/30 10:11:25;;;;;;;8.75;3.17;;;;;;;12.96;100.00;101420.38;5008916;28;20454;-64
2021/12/30 10:13:52;;;;;;;7.72;3.50;;;;;;;12.96;100.00;101420.38;5007497;28;20109;-64
2021/12/30 10:16:18;;;;;;;10.55;4.43;;;;;;;12.96;100.00;101415.19;5006738;28;20091;-64
2021/12/30 10:18:55;;;;;;;11.25;3.88;;;;;;;12.96;100.00;101415.19;5007416;28;20117;-64
2021/12/30 10:21:22;;;;;;;8.57;3.25;;;;;;;12.99;100.00;101429.97;5007470;28;20022;-64
2021/12/30 10:23:51;;;;;;;11.27;3.22;;;;;;;13.03;100.00;101425.75;5007456;28;20372;-63
2021/12/30 10:26:17;;;;;;;11.23;3.40;;;;;;;13.08;100.00;101429.38;5006637;28;20386;-64
2021/12/30 10:28:44;;;;;;;11.30;4.00;;;;;;;13.10;100.00;101422.50;5010271;28;20022;-64
2021/12/30 10:31:12;;;;;;;10.95;3.72;;;;;;;13.11;100.00;101411.28;5009372;28;20434;-63
2021/12/30 10:34:00;;;;;;;9.48;3.42;;;;;;;13.09;100.00;101426.84;5010546;28;20100;-64
2021/12/30 10:36:30;;;;;;;9.73;3.70;;;;;;;13.08;100.00;101429.38;5009149;28;20030;-64
2021/12/30 10:39:27;;;;;;;10.95;3.83;;;;;;;13.06;100.00;101431.09;5010113;28;20156;-64
2021/12/30 10:41:54;;;;;;;7.97;3.10;;;;;;;13.03;100.00;101420.56;5008587;28;20030;-64
2021/12/30 10:44:20;;;;;;;9.75;3.70;;;;;;;13.05;100.00;101424.09;5009864;28;20060;-64
2021/12/30 10:46:47;;;;;;;8.85;3.65;;;;;;;13.06;100.00;101425.88;5010046;28;20026;-64
2021/12/30 10:49:32;;;;;;;11.68;3.90;;;;;;;13.05;100.00;101419.78;5009408;28;20029;-64
2021/12/30 10:51:58;;;;;;;8.02;3.05;;;;;;;13.08;100.00;101424.19;5009114;28;20125;-64
2021/12/30 10:54:27;;;;;;;8.48;3.25;;;;;;;13.11;100.00;101419.09;5010229;28;20418;-64
2021/12/30 10:56:57;;;;;;;9.38;3.50;;;;;;;13.15;100.00;101422.69;5009738;28;20146;-64
2021/12/30 10:59:22;;;;;;;13.73;4.15;;;;;;;13.16;100.00;101427.91;5009509;28;20443;-64
2021/12/30 11:01:52;;;;;;;9.75;3.40;;;;;;;13.14;100.00;101424.38;5009067;28;20061;-64
2021/12/30 11:04:19;;;;;;;9.15;3.90;;;;;;;13.16;100.00;101427.91;5009425;28;20108;-64
2021/12/30 11:06:46;;;;;;;11.43;3.65;;;;;;;13.16;100.00;101432.22;5010087;28;20018;-64
2021/12/30 11:09:20;;;;;;;13.02;3.78;;;;;;;13.15;100.00;101426.13;5009828;28;20037;-64
2021/12/30 11:11:49;;;;;;;12.27;3.53;;;;;;;13.16;100.00;101437.44;5007762;28;20108;-63
2021/12/30 11:14:21;;;;;;;11.43;3.95;;;;;;;13.18;100.00;101441.88;5010040;28;20114;-64